Time;durP1;ratioP1;P1;durP2;ratioP2;P2;SDS_P1;SDS_P2;PMS_P1;PMS_P2;Temp;Humidity;BMP_temperature;BMP_pressure;BME280_temperature;BME280_humidity;BME280_pressure;Samples;Min_cycle;Max_cycle;Signal;HPM_P1;HPM_P2
2022/05/12 00:00:18;;;;;;;8.25;1.40;;;14.00;99.90;;;;;;5070615;28;20044;-65
2022/05/12 00:02:44;;;;;;;6.15;1.65;;;13.90;99.90;;;;;;5071069;28;20044;-66
2022/05/12 00:05:11;;;;;;;7.57;1.70;;;13.80;99.90;;;;;;5070327;28;20504;-66
2022/05/12 00:07:36;;;;;;;4.75;1.60;;;13.80;99.90;;;;;;5070332;28;20032;-66
2022/05/12 00:10:03;;;;;;;4.85;1.58;;;13.80;99.90;;;;;;5070805;28;20078;-66
2022/05/12 00:12:29;;;;;;;6.75;1.63;;;13.70;99.90;;;;;;5071415;28;20064;-66
2022/05/12 00:14:54;;;;;;;6.55;1.73;;;13.70;99.90;;;;;;5070862;28;20055;-66
2022/05/12 00:17:21;;;;;;;4.97;1.70;;;13.70;99.90;;;;;;5070954;28;20047;-66
2022/05/12 00:19:46;;;;;;;9.52;1.60;;;13.70;99.90;;;;;;5070558;28;20051;-66
2022/05/12 00:22:12;;;;;;;7.18;2.38;;;13.60;99.90;;;;;;5070823;28;20033;-66
2022/05/12 00:24:37;;;;;;;9.55;2.10;;;13.50;99.90;;;;;;5071224;28;20037;-66
2022/05/12 00:27:03;;;;;;;6.22;1.50;;;13.50;99.90;;;;;;5070048;28;20072;-66
2022/05/12 00:29:29;;;;;;;5.07;1.55;;;13.50;99.90;;;;;;5069797;28;20377;-65
2022/05/12 00:31:54;;;;;;;5.30;1.70;;;13.40;99.90;;;;;;5069357;28;20408;-66
2022/05/12 00:34:21;;;;;;;10.20;1.80;;;13.50;99.90;;;;;;5070117;28;20048;-66
2022/05/12 00:36:47;;;;;;;9.77;1.85;;;13.40;99.90;;;;;;5070650;28;20045;-66
2022/05/12 00:39:13;;;;;;;6.35;1.30;;;13.40;99.90;;;;;;5070305;28;20043;-65
2022/05/12 00:41:39;;;;;;;3.30;1.42;;;13.30;99.90;;;;;;5070604;28;20055;-66
2022/05/12 00:44:08;;;;;;;3.88;1.35;;;13.30;99.90;;;;;;5069321;28;20036;-66
2022/05/12 00:46:37;;;;;;;5.13;1.58;;;13.30;99.90;;;;;;5070802;28;20039;-66
2022/05/12 00:49:14;;;;;;;7.57;1.45;;;13.30;99.90;;;;;;5070266;28;20546;-66
2022/05/12 00:51:46;;;;;;;7.13;1.77;;;13.30;99.90;;;;;;5070072;28;20558;-67
2022/05/12 00:54:19;;;;;;;6.78;1.77;;;13.20;99.90;;;;;;5068191;28;20098;-67
2022/05/12 00:56:44;;;;;;;;;;;13.20;99.90;;;;;;5070985;28;20066;-65
2022/05/12 00:59:16;;;;;;;4.55;1.60;;;13.10;99.90;;;;;;5069912;28;19920;-67
2022/05/12 01:01:41;;;;;;;4.18;1.33;;;13.10;99.90;;;;;;5070673;28;20043;-66
2022/05/12 01:04:07;;;;;;;3.67;1.35;;;13.00;99.90;;;;;;5070361;28;20407;-66
2022/05/12 01:06:33;;;;;;;6.35;1.40;;;13.00;99.90;;;;;;5070504;28;20067;-65
2022/05/12 01:08:59;;;;;;;6.00;1.30;;;13.00;99.90;;;;;;5069824;28;20040;-66
2022/05/12 01:11:25;;;;;;;2.88;1.25;;;13.00;99.90;;;;;;5070343;28;20067;-66
2022/05/12 01:13:59;;;;;;;5.25;1.30;;;12.90;99.90;;;;;;5070432;28;20044;-66
2022/05/12 01:16:34;;;;;;;4.55;1.38;;;12.80;99.90;;;;;;5070533;28;20041;-66
2022/05/12 01:19:00;;;;;;;2.80;1.17;;;12.80;99.90;;;;;;5069836;28;20048;-65
2022/05/12 01:21:25;;;;;;;3.90;1.35;;;12.90;99.90;;;;;;5070356;28;20045;-66
2022/05/12 01:23:51;;;;;;;2.65;1.30;;;12.80;99.90;;;;;;5070090;28;20097;-66
2022/05/12 01:26:17;;;;;;;2.78;1.30;;;12.80;99.90;;;;;;5068949;28;20047;-65
2022/05/12 01:28:43;;;;;;;4.22;1.20;;;12.80;99.90;;;;;;5069968;28;20033;-65
2022/05/12 01:31:15;;;;;;;7.50;1.63;;;12.70;99.90;;;;;;5070019;28;20044;-65
2022/05/12 01:33:41;;;;;;;5.20;1.48;;;12.70;99.90;;;;;;5069259;28;20407;-65
2022/05/12 01:36:06;;;;;;;3.53;1.40;;;12.70;99.90;;;;;;5070292;28;20037;-65
2022/05/12 01:38:32;;;;;;;2.30;0.98;;;12.70;99.90;;;;;;5068984;28;20111;-66
2022/05/12 01:40:57;;;;;;;6.65;1.77;;;12.60;99.90;;;;;;5070037;28;20039;-66
2022/05/12 01:43:23;;;;;;;3.25;1.70;;;12.60;99.90;;;;;;5069901;28;20142;-65
2022/05/12 01:45:48;;;;;;;3.92;1.50;;;12.50;99.90;;;;;;5071856;28;20089;-65
2022/05/12 01:48:15;;;;;;;8.95;1.58;;;12.50;99.90;;;;;;5073571;28;20044;-65
2022/05/12 01:50:42;;;;;;;3.20;1.42;;;12.50;99.90;;;;;;5073456;28;20558;-66
2022/05/12 01:53:11;;;;;;;7.45;2.25;;;12.50;99.90;;;;;;5073900;28;20044;-65
2022/05/12 01:55:38;;;;;;;6.15;1.60;;;12.50;99.90;;;;;;5073792;28;20033;-65
2022/05/12 01:58:05;;;;;;;5.35;1.70;;;12.50;99.90;;;;;;5073310;28;20115;-66
2022/05/12 02:00:31;;;;;;;4.22;1.60;;;12.40;99.90;;;;;;5073306;28;20041;-66
2022/05/12 02:03:00;;;;;;;4.60;1.80;;;12.40;99.90;;;;;;5073228;28;20386;-66
2022/05/12 02:05:27;;;;;;;2.38;1.38;;;12.40;99.90;;;;;;5071023;28;20057;-66
2022/05/12 02:07:53;;;;;;;4.32;1.65;;;12.50;99.90;;;;;;5073198;28;20098;-65
2022/05/12 02:10:26;;;;;;;3.90;1.52;;;12.40;99.90;;;;;;5073260;28;20492;-65
2022/05/12 02:12:51;;;;;;;;;;;12.40;99.90;;;;;;5073458;28;20041;-66
2022/05/12 02:15:17;;;;;;;4.60;1.83;;;12.40;99.90;;;;;;5073222;28;20006;-66
2022/05/12 02:17:43;;;;;;;6.10;1.98;;;12.40;99.90;;;;;;5072810;28;20032;-66
2022/05/12 02:20:10;;;;;;;6.15;1.42;;;12.30;99.90;;;;;;5071359;28;20040;-66
2022/05/12 02:22:36;;;;;;;3.88;2.15;;;12.30;99.90;;;;;;5071698;28;20053;-65
2022/05/12 02:25:03;;;;;;;4.88;1.90;;;12.30;99.90;;;;;;5071757;28;20056;-66
2022/05/12 02:27:28;;;;;;;3.03;1.70;;;12.30;99.90;;;;;;5072830;28;20040;-66
2022/05/12 02:29:55;;;;;;;5.97;1.95;;;12.20;99.90;;;;;;5071035;28;20043;-65
2022/05/12 02:32:20;;;;;;;4.85;2.05;;;12.20;99.90;;;;;;5072957;28;20036;-65
2022/05/12 02:34:46;;;;;;;3.05;1.92;;;12.20;99.90;;;;;;5072955;28;20515;-66
2022/05/12 02:37:11;;;;;;;6.35;1.90;;;12.20;99.90;;;;;;5072899;28;20416;-66
2022/05/12 02:39:40;;;;;;;2.38;1.60;;;12.20;99.90;;;;;;5071708;28;20032;-66
2022/05/12 02:42:08;;;;;;;4.82;1.80;;;12.10;99.90;;;;;;5072026;28;20048;-65
2022/05/12 02:44:35;;;;;;;3.08;1.80;;;12.10;99.90;;;;;;5072096;28;20051;-65
2022/05/12 02:47:01;;;;;;;4.20;2.13;;;12.10;99.90;;;;;;5072981;28;20048;-65
2022/05/12 02:49:27;;;;;;;4.28;2.08;;;12.00;99.90;;;;;;5072185;28;20050;-66
2022/05/12 02:51:53;;;;;;;5.95;1.80;;;12.10;99.90;;;;;;5072769;28;20123;-65
2022/05/12 02:54:19;;;;;;;5.15;2.00;;;12.00;99.90;;;;;;5072676;28;20040;-66
2022/05/12 02:56:45;;;;;;;2.72;1.77;;;12.00;99.90;;;;;;5071332;28;20120;-65
2022/05/12 02:59:11;;;;;;;7.95;1.88;;;12.00;99.90;;;;;;5071831;28;20507;-65
2022/05/12 03:01:37;;;;;;;3.28;2.00;;;11.90;99.90;;;;;;5072552;28;20049;-65
2022/05/12 03:04:03;;;;;;;3.95;2.33;;;11.90;99.90;;;;;;5072536;28;20051;-65
2022/05/12 03:06:29;;;;;;;5.85;2.08;;;11.90;99.90;;;;;;5072289;28;20032;-66
2022/05/12 03:08:55;;;;;;;4.60;1.77;;;11.90;99.90;;;;;;5072191;28;20086;-66
2022/05/12 03:11:22;;;;;;;3.65;2.08;;;11.90;99.90;;;;;;5072068;28;20448;-65
2022/05/12 03:13:50;;;;;;;4.50;1.90;;;11.90;99.90;;;;;;5072074;28;20103;-65
2022/05/12 03:16:18;;;;;;;5.18;2.22;;;11.90;99.90;;;;;;5070947;28;20048;-66
2022/05/12 03:18:46;;;;;;;6.57;1.73;;;11.90;99.90;;;;;;5071073;28;20040;-66
2022/05/12 03:21:13;;;;;;;8.07;2.22;;;11.90;99.90;;;;;;5072049;28;20124;-66
2022/05/12 03:23:40;;;;;;;7.85;2.22;;;11.80;99.90;;;;;;5070704;28;20059;-66
2022/05/12 03:26:06;;;;;;;6.97;2.10;;;11.80;99.90;;;;;;5071556;28;20507;-67
2022/05/12 03:28:32;;;;;;;7.03;2.13;;;11.70;99.90;;;;;;5071272;28;20041;-67
2022/05/12 03:30:59;;;;;;;6.20;1.92;;;11.70;99.90;;;;;;5071880;28;20103;-66
2022/05/12 03:33:24;;;;;;;9.85;2.15;;;11.70;99.90;;;;;;5071768;28;20032;-66
2022/05/12 03:35:50;;;;;;;6.07;2.00;;;11.70;99.90;;;;;;5071217;28;20170;-67
2022/05/12 03:38:16;;;;;;;5.95;1.92;;;11.70;99.90;;;;;;5067802;28;20032;-67
2022/05/12 03:40:42;;;;;;;6.18;1.75;;;11.70;99.90;;;;;;5068791;28;20032;-66
2022/05/12 03:43:08;;;;;;;5.95;2.50;;;11.60;99.90;;;;;;5070225;28;20529;-65
2022/05/12 03:45:33;;;;;;;5.00;2.10;;;11.70;99.90;;;;;;5071528;28;20029;-66
2022/05/12 03:48:00;;;;;;;7.65;2.45;;;11.60;99.90;;;;;;5069349;28;20033;-66
2022/05/12 03:50:27;;;;;;;9.05;2.70;;;11.60;99.90;;;;;;5069207;28;20044;-68
2022/05/12 03:52:54;;;;;;;8.18;2.08;;;11.50;99.90;;;;;;5071579;28;20032;-65
2022/05/12 03:55:23;;;;;;;9.05;2.10;;;11.50;99.90;;;;;;5071302;28;20148;-66
2022/05/12 03:57:53;;;;;;;7.70;1.80;;;11.50;99.90;;;;;;5069961;28;20522;-65
2022/05/12 04:00:24;;;;;;;7.25;2.05;;;11.50;99.90;;;;;;5070829;28;20068;-65
2022/05/12 04:02:49;;;;;;;7.55;2.33;;;11.40;99.90;;;;;;5071081;28;20040;-66
2022/05/12 04:05:15;;;;;;;7.93;2.22;;;11.40;99.90;;;;;;5071223;28;20111;-66
2022/05/12 04:07:43;;;;;;;8.57;2.33;;;11.40;99.90;;;;;;5070893;28;20043;-67
2022/05/12 04:10:10;;;;;;;8.70;2.30;;;11.40;99.90;;;;;;5070682;28;20052;-65
2022/05/12 04:12:36;;;;;;;9.75;2.63;;;11.40;99.90;;;;;;5071268;28;20040;-66
2022/05/12 04:15:03;;;;;;;9.18;2.45;;;11.50;99.90;;;;;;5070886;28;20047;-66
2022/05/12 04:17:28;;;;;;;8.07;3.00;;;11.40;99.90;;;;;;5069429;28;20044;-66
2022/05/12 04:19:54;;;;;;;6.25;2.75;;;11.50;99.90;;;;;;5069913;28;20059;-66
2022/05/12 04:22:19;;;;;;;9.93;2.72;;;11.50;99.90;;;;;;5069284;28;20583;-66
2022/05/12 04:24:45;;;;;;;8.30;2.80;;;11.50;99.90;;;;;;5069032;28;20508;-66
2022/05/12 04:27:12;;;;;;;10.43;3.22;;;11.50;99.90;;;;;;5070080;28;20064;-66
2022/05/12 04:29:39;;;;;;;7.72;2.88;;;11.50;99.90;;;;;;5070523;28;20115;-66
2022/05/12 04:32:05;;;;;;;12.18;3.15;;;11.50;99.90;;;;;;5070271;28;20564;-65
2022/05/12 04:37:15;;;;;;;12.07;3.35;;;11.60;99.90;;;;;;5070676;28;20052;-65
2022/05/12 04:39:40;;;;;;;12.18;3.58;;;11.70;99.90;;;;;;5069044;28;20489;-65
2022/05/12 04:42:06;;;;;;;7.72;3.80;;;11.70;99.90;;;;;;5070272;28;20041;-66
2022/05/12 04:44:32;;;;;;;8.10;3.65;;;11.90;99.90;;;;;;5070771;28;20044;-65
2022/05/12 04:46:57;;;;;;;10.90;4.18;;;12.00;99.90;;;;;;5070753;28;20183;-65
2022/05/12 04:49:23;;;;;;;15.38;3.90;;;12.10;99.90;;;;;;5070435;28;20033;-65
2022/05/12 04:51:49;;;;;;;9.55;3.60;;;12.10;99.90;;;;;;5070707;28;20032;-65
2022/05/12 04:54:14;;;;;;;9.65;4.07;;;12.10;99.90;;;;;;5070546;28;20044;-66
2022/05/12 04:56:41;;;;;;;10.73;4.65;;;12.30;99.90;;;;;;5070574;28;20484;-67
2022/05/12 04:59:09;;;;;;;9.70;3.97;;;12.40;99.90;;;;;;5070263;28;20070;-65
2022/05/12 05:01:34;;;;;;;11.60;4.85;;;12.30;99.90;;;;;;5070789;28;20047;-67
2022/05/12 05:04:00;;;;;;;11.25;4.95;;;12.50;99.90;;;;;;5070424;28;20048;-65
2022/05/12 05:06:30;;;;;;;15.45;5.25;;;12.60;99.90;;;;;;5070553;28;20048;-66
2022/05/12 05:08:55;;;;;;;15.35;5.20;;;12.70;99.90;;;;;;5068816;28;20045;-66
2022/05/12 05:11:21;;;;;;;12.82;5.13;;;12.80;99.90;;;;;;5069173;28;20032;-66
2022/05/12 05:13:47;;;;;;;12.55;5.28;;;12.90;99.90;;;;;;5068982;28;20044;-65
2022/05/12 05:16:13;;;;;;;12.43;5.20;;;13.00;99.90;;;;;;5070488;28;20041;-66
2022/05/12 05:18:39;;;;;;;12.60;4.90;;;13.10;99.90;;;;;;5070112;28;20036;-66
2022/05/12 05:21:04;;;;;;;11.35;4.85;;;13.00;99.90;;;;;;5072590;28;20420;-65
2022/05/12 05:23:31;;;;;;;8.05;4.53;;;13.10;99.90;;;;;;5074101;28;20546;-66
2022/05/12 05:25:56;;;;;;;13.93;5.30;;;13.20;99.90;;;;;;5072211;28;20520;-64
2022/05/12 05:28:22;;;;;;;12.77;5.15;;;13.10;99.90;;;;;;5073978;28;20028;-65
2022/05/12 05:30:49;;;;;;;10.55;4.95;;;13.20;99.90;;;;;;5073890;28;20565;-65
2022/05/12 05:33:16;;;;;;;9.38;4.90;;;13.30;99.90;;;;;;5074115;28;20255;-66
2022/05/12 05:35:42;;;;;;;14.20;5.30;;;13.40;99.90;;;;;;5073828;28;20044;-65
2022/05/12 05:38:08;;;;;;;12.90;5.22;;;13.60;99.90;;;;;;5073513;28;20395;-66
2022/05/12 05:40:33;;;;;;;13.48;5.70;;;13.60;99.90;;;;;;5073222;28;20179;-65
2022/05/12 05:43:00;;;;;;;11.93;5.50;;;13.70;99.90;;;;;;5073108;28;20516;-65
2022/05/12 05:45:26;;;;;;;11.85;5.35;;;13.70;99.90;;;;;;5073650;28;20063;-66
2022/05/12 05:47:57;;;;;;;10.50;5.30;;;13.80;99.90;;;;;;5073814;28;20115;-66
2022/05/12 05:50:29;;;;;;;12.07;5.90;;;13.80;99.90;;;;;;5073414;28;20614;-65
2022/05/12 05:55:41;;;;;;;12.60;5.97;;;14.10;99.90;;;;;;5072464;28;20048;-66
2022/05/12 05:58:09;;;;;;;15.38;5.32;;;14.10;99.90;;;;;;5073088;28;20045;-65
2022/05/12 06:00:36;;;;;;;16.20;6.15;;;14.30;99.90;;;;;;5072362;28;20115;-65
2022/05/12 06:03:02;;;;;;;12.05;5.68;;;14.30;99.90;;;;;;5073369;28;20436;-66
2022/05/12 06:05:28;;;;;;;12.70;5.55;;;14.30;99.90;;;;;;5073659;28;20051;-65
2022/05/12 06:07:54;;;;;;;13.80;6.15;;;14.40;99.90;;;;;;5073219;28;20493;-65
2022/05/12 06:10:20;;;;;;;13.73;5.65;;;14.40;99.90;;;;;;5073062;28;20047;-66
2022/05/12 06:12:48;;;;;;;15.27;5.60;;;14.60;99.90;;;;;;5071927;28;20079;-65
2022/05/12 06:15:15;;;;;;;9.00;5.32;;;14.70;99.90;;;;;;5072188;28;20051;-65
2022/05/12 06:17:41;;;;;;;16.83;5.57;;;14.70;99.90;;;;;;5077896;28;20051;-65
2022/05/12 06:20:08;;;;;;;10.98;6.20;;;14.70;99.90;;;;;;5082376;28;20119;-65
2022/05/12 06:22:35;;;;;;;14.60;5.40;;;14.80;99.90;;;;;;5091332;28;20066;-65
2022/05/12 06:25:07;;;;;;;15.32;5.72;;;14.90;99.90;;;;;;5093344;28;20051;-66
2022/05/12 06:27:33;;;;;;;15.52;5.90;;;15.00;99.90;;;;;;5093287;28;20040;-65
2022/05/12 06:29:59;;;;;;;14.80;5.65;;;15.10;99.90;;;;;;5092821;28;20032;-65
2022/05/12 06:32:26;;;;;;;14.32;5.88;;;15.10;99.90;;;;;;5092983;28;20063;-65
2022/05/12 06:34:52;;;;;;;13.98;5.50;;;15.20;99.90;;;;;;5093047;28;20032;-65
2022/05/12 06:37:19;;;;;;;17.65;5.43;;;15.20;99.90;;;;;;5092942;28;20043;-65
2022/05/12 06:39:44;;;;;;;12.07;5.00;;;15.30;99.90;;;;;;5092692;28;20119;-64
2022/05/12 06:42:12;;;;;;;14.35;6.30;;;15.40;99.90;;;;;;5092077;28;20119;-65
2022/05/12 06:44:39;;;;;;;9.65;4.90;;;15.40;99.90;;;;;;5093053;28;20089;-64
2022/05/12 06:47:10;;;;;;;12.35;5.03;;;15.50;99.90;;;;;;5089480;28;20370;-66
2022/05/12 06:49:35;;;;;;;13.23;5.43;;;15.60;99.90;;;;;;5085163;28;20080;-65
2022/05/12 06:52:05;;;;;;;14.60;4.78;;;15.60;99.90;;;;;;5091984;28;20695;-65
2022/05/12 06:54:34;;;;;;;13.80;4.65;;;15.70;99.90;;;;;;5091807;28;20408;-66
2022/05/12 06:57:00;;;;;;;8.80;4.47;;;15.80;99.90;;;;;;5091905;28;20062;-65
2022/05/12 06:59:26;;;;;;;10.98;4.00;;;15.90;99.90;;;;;;5091422;28;20195;-65
2022/05/12 07:01:52;;;;;;;10.10;3.80;;;15.90;99.90;;;;;;5090192;28;20040;-66
2022/05/12 07:04:18;;;;;;;11.73;4.28;;;15.90;99.90;;;;;;5092328;28;20051;-66
2022/05/12 07:06:44;;;;;;;8.75;4.50;;;16.00;99.90;;;;;;5091724;28;20088;-66
2022/05/12 07:09:10;;;;;;;10.73;3.90;;;16.00;99.90;;;;;;5091517;28;20168;-65
2022/05/12 07:11:36;;;;;;;8.07;3.72;;;16.10;99.90;;;;;;5092186;28;20520;-66
2022/05/12 07:14:02;;;;;;;15.73;4.25;;;16.10;99.90;;;;;;5091862;28;20047;-65
2022/05/12 07:16:27;;;;;;;6.55;3.78;;;16.20;99.90;;;;;;5091800;28;20049;-65
2022/05/12 07:18:53;;;;;;;10.50;4.03;;;16.20;99.90;;;;;;5091664;28;20044;-65
2022/05/12 07:26:48;;;;;;;7.18;3.60;;;16.30;99.90;;;;;;5092130;28;20068;-65
2022/05/12 07:29:17;;;;;;;12.38;3.58;;;16.40;99.90;;;;;;5088191;28;20161;-65
2022/05/12 07:31:43;;;;;;;12.93;3.78;;;16.50;99.90;;;;;;5089509;28;20381;-65
2022/05/12 07:34:09;;;;;;;14.63;3.67;;;16.50;99.90;;;;;;5090712;28;20040;-68
2022/05/12 07:36:41;;;;;;;11.68;3.03;;;16.70;99.90;;;;;;5090566;28;20036;-67
2022/05/12 07:39:07;;;;;;;10.13;4.22;;;16.70;99.90;;;;;;5091637;28;20048;-68
2022/05/12 07:41:33;;;;;;;7.80;3.40;;;16.70;99.90;;;;;;5091909;28;20040;-68
2022/05/12 07:44:00;;;;;;;8.70;2.90;;;16.70;99.90;;;;;;5091177;28;20119;-68
2022/05/12 07:46:28;;;;;;;7.13;2.80;;;16.80;99.90;;;;;;5091120;28;20032;-67
2022/05/12 07:48:55;;;;;;;9.73;3.47;;;16.90;99.90;;;;;;5091377;28;20420;-68
2022/05/12 07:51:21;;;;;;;9.55;4.45;;;16.90;99.90;;;;;;5090648;28;20127;-68
2022/05/12 07:53:48;;;;;;;9.93;3.17;;;16.70;99.90;;;;;;5089749;28;20135;-68
2022/05/12 07:56:15;;;;;;;9.45;2.83;;;16.80;99.90;;;;;;5088312;28;20036;-68
2022/05/12 07:58:42;;;;;;;10.75;2.97;;;16.80;99.90;;;;;;5090710;28;20048;-68
2022/05/12 08:01:07;;;;;;;9.32;2.55;;;16.80;99.90;;;;;;5091221;28;20579;-67
2022/05/12 08:03:34;;;;;;;4.97;2.33;;;16.70;99.90;;;;;;5090381;28;20036;-68
2022/05/12 08:06:00;;;;;;;8.90;2.70;;;16.70;99.90;;;;;;5091369;28;20040;-68
2022/05/12 08:08:26;;;;;;;6.80;2.80;;;16.60;99.90;;;;;;5090935;28;20052;-69
2022/05/12 08:10:51;;;;;;;8.77;2.97;;;16.70;99.90;;;;;;5091217;28;20032;-68
2022/05/12 08:13:17;;;;;;;10.88;3.28;;;16.70;99.90;;;;;;5090675;28;20087;-69
2022/05/12 08:15:48;;;;;;;6.93;2.90;;;16.70;99.90;;;;;;5091252;28;20504;-69
2022/05/12 08:18:18;;;;;;;8.45;2.50;;;16.80;99.90;;;;;;5089442;28;20115;-68
2022/05/12 08:20:47;;;;;;;6.53;2.15;;;16.90;99.90;;;;;;5090942;28;20502;-69
2022/05/12 08:23:13;;;;;;;7.72;2.60;;;17.10;99.90;;;;;;5090267;28;20036;-69
2022/05/12 08:25:40;;;;;;;6.60;2.60;;;17.10;99.90;;;;;;5090973;28;20036;-69
2022/05/12 08:28:06;;;;;;;7.80;2.60;;;17.10;99.90;;;;;;5091082;28;20044;-69
2022/05/12 08:30:31;;;;;;;8.68;2.58;;;17.10;99.90;;;;;;5088436;28;20039;-69
2022/05/12 08:32:58;;;;;;;10.82;2.75;;;17.10;99.90;;;;;;5089530;28;20044;-69
2022/05/12 08:35:25;;;;;;;10.60;2.55;;;17.00;99.90;;;;;;5088377;28;20503;-69
2022/05/12 08:37:50;;;;;;;4.78;2.50;;;17.00;99.90;;;;;;5090541;28;20442;-69
2022/05/12 08:40:44;;;;;;;7.65;2.65;;;17.00;99.90;;;;;;5088050;28;20169;-69
2022/05/12 08:43:24;;;;;;;11.15;2.83;;;16.80;99.90;;;;;;5080706;28;20040;-68
2022/05/12 08:45:50;;;;;;;7.32;2.33;;;16.80;99.90;;;;;;5077487;28;20102;-69
2022/05/12 08:48:17;;;;;;;10.43;2.58;;;16.80;99.90;;;;;;5079014;28;20484;-70
2022/05/12 08:50:50;;;;;;;5.05;2.20;;;16.70;99.90;;;;;;5079187;28;20051;-70
2022/05/12 08:53:22;;;;;;;10.20;2.10;;;16.80;99.90;;;;;;5079938;28;20045;-70
2022/05/12 08:55:54;;;;;;;6.65;2.13;;;17.00;99.90;;;;;;5081580;28;20037;-70
2022/05/12 08:58:22;;;;;;;7.75;2.20;;;17.20;99.90;;;;;;5091543;28;20501;-69
2022/05/12 09:00:59;;;;;;;10.27;2.20;;;17.30;99.90;;;;;;5094774;28;20127;-69
2022/05/12 09:03:39;;;;;;;8.02;2.20;;;17.30;99.90;;;;;;5093768;28;20039;-70
2022/05/12 09:06:28;;;;;;;3.83;1.73;;;17.50;99.90;;;;;;5088093;28;20036;-69
2022/05/12 09:09:01;;;;;;;4.93;1.80;;;17.50;99.90;;;;;;5082477;28;20032;-69
2022/05/12 09:11:51;;;;;;;4.65;1.52;;;17.70;99.90;;;;;;5082491;28;20029;-70
2022/05/12 09:14:33;;;;;;;6.75;1.38;;;17.70;99.90;;;;;;5085285;28;20044;-69
2022/05/12 09:17:00;;;;;;;7.37;1.70;;;17.80;99.90;;;;;;5085544;28;20078;-70
2022/05/12 09:19:27;;;;;;;9.52;1.80;;;17.90;99.90;;;;;;5089103;28;20770;-70
2022/05/12 09:21:53;;;;;;;6.35;1.85;;;17.90;99.90;;;;;;5075237;28;20047;-71
2022/05/12 09:24:19;;;;;;;9.55;1.85;;;18.00;99.90;;;;;;5082236;28;20044;-69
2022/05/12 09:26:46;;;;;;;6.68;1.90;;;18.10;99.90;;;;;;5073920;28;20183;-68
2022/05/12 09:29:23;;;;;;;3.78;1.50;;;18.00;99.90;;;;;;5073424;28;20037;-69
2022/05/12 09:32:15;;;;;;;6.18;1.58;;;18.10;99.90;;;;;;5072164;28;20041;-70
2022/05/12 09:34:46;;;;;;;5.90;2.20;;;18.10;99.90;;;;;;5074166;28;20390;-69
2022/05/12 09:37:15;;;;;;;3.88;1.58;;;18.20;99.90;;;;;;5074175;28;20040;-69
2022/05/12 09:39:53;;;;;;;7.63;2.05;;;18.30;99.90;;;;;;5072842;28;20052;-69
2022/05/12 09:43:04;;;;;;;5.15;1.67;;;18.30;99.90;;;;;;5074191;28;20386;-70
2022/05/12 09:45:36;;;;;;;5.57;1.77;;;18.40;99.90;;;;;;5055206;28;20118;-69
2022/05/12 09:48:22;;;;;;;4.70;1.98;;;18.40;99.90;;;;;;5075449;28;20052;-69
2022/05/12 09:50:49;;;;;;;5.75;1.98;;;18.50;99.90;;;;;;5078356;28;20050;-69
2022/05/12 09:53:25;;;;;;;8.88;1.83;;;18.60;99.90;;;;;;5074932;28;20037;-69
2022/05/12 09:56:01;;;;;;;5.63;1.73;;;18.70;99.90;;;;;;5074176;28;20045;-69
2022/05/12 09:58:43;;;;;;;8.98;1.90;;;18.80;99.90;;;;;;5072600;28;20036;-70
2022/05/12 10:01:15;;;;;;;3.45;1.40;;;18.80;99.90;;;;;;5072866;28;20067;-70
2022/05/12 10:09:21;;;;;;;5.85;1.50;;;19.00;99.90;;;;;;5075224;28;20490;-69
2022/05/12 10:12:19;;;;;;;6.95;1.50;;;18.90;99.90;;;;;;5087978;28;20055;-70
2022/05/12 10:14:54;;;;;;;4.78;1.25;;;19.00;99.90;;;;;;5093006;28;20047;-70
2022/05/12 10:17:36;;;;;;;5.47;1.52;;;18.90;99.90;;;;;;5091029;28;20118;-71
2022/05/12 10:20:18;;;;;;;7.68;1.63;;;19.10;99.90;;;;;;5092428;28;20088;-69
2022/05/12 10:22:44;;;;;;;10.80;1.58;;;19.00;99.90;;;;;;5087479;28;20067;-70
2022/05/12 10:25:56;;;;;;;6.60;1.63;;;19.00;99.90;;;;;;5091118;28;20044;-69
2022/05/12 10:28:43;;;;;;;2.80;1.23;;;19.10;99.90;;;;;;5092010;28;20036;-69
2022/05/12 10:31:36;;;;;;;3.00;1.38;;;19.00;98.60;;;;;;5092355;28;20048;-70
2022/05/12 10:34:04;;;;;;;;;;;19.20;97.90;;;;;;5093869;28;20036;-69
2022/05/12 10:36:33;;;;;;;3.05;1.42;;;19.30;99.80;;;;;;5092558;28;19915;-69
2022/05/12 10:39:22;;;;;;;5.15;1.20;;;19.40;97.20;;;;;;5091555;28;20044;-69
2022/05/12 10:42:36;;;;;;;5.72;0.98;;;19.40;96.30;;;;;;5093371;28;20035;-69
2022/05/12 10:45:19;;;;;;;3.13;1.15;;;19.40;92.60;;;;;;5055410;28;20098;-69
2022/05/12 10:48:21;;;;;;;5.95;1.20;;;19.40;95.90;;;;;;5091313;28;20131;-69
2022/05/12 10:50:49;;;;;;;4.45;1.35;;;19.50;92.30;;;;;;5091701;28;20044;-68
2022/05/12 10:53:23;;;;;;;3.90;0.98;;;19.40;93.60;;;;;;5093204;28;20044;-70
2022/05/12 10:56:08;;;;;;;4.07;0.98;;;19.40;89.30;;;;;;5096282;28;20110;-69
2022/05/12 10:58:55;;;;;;;4.20;1.02;;;19.50;86.90;;;;;;5097669;28;20075;-69
2022/05/12 11:01:28;;;;;;;3.42;0.98;;;19.50;86.40;;;;;;5095878;28;20036;-65
2022/05/12 11:04:07;;;;;;;3.13;0.95;;;19.50;82.00;;;;;;5091840;28;20128;-66
2022/05/12 11:06:47;;;;;;;4.13;1.30;;;19.60;89.60;;;;;;5091258;28;20047;-65
2022/05/12 11:09:19;;;;;;;3.58;1.25;;;19.80;90.80;;;;;;5091483;28;20081;-66
2022/05/12 11:11:49;;;;;;;3.50;1.20;;;19.70;93.10;;;;;;5090552;28;20055;-66
2022/05/12 11:14:17;;;;;;;4.05;1.13;;;19.70;93.60;;;;;;5091999;28;20054;-66
2022/05/12 11:17:08;;;;;;;3.65;1.10;;;19.80;93.40;;;;;;5092207;28;20051;-66
2022/05/12 11:19:34;;;;;;;4.32;1.25;;;19.80;87.80;;;;;;5091625;28;20492;-65
2022/05/12 11:22:11;;;;;;;3.42;1.00;;;19.90;92.80;;;;;;5092416;28;20047;-66
2022/05/12 11:24:56;;;;;;;2.80;1.33;;;19.90;91.50;;;;;;5092303;28;20048;-65
2022/05/12 11:27:46;;;;;;;3.20;1.10;;;20.00;90.50;;;;;;5091212;28;20036;-65
2022/05/12 11:30:34;;;;;;;6.15;1.67;;;20.00;92.70;;;;;;5082485;28;20032;-65
2022/05/12 11:33:22;;;;;;;2.65;1.00;;;20.10;81.40;;;;;;5070775;28;20047;-65
2022/05/12 11:35:51;;;;;;;5.03;1.30;;;20.10;77.10;;;;;;5071192;28;20036;-65
2022/05/12 11:38:39;;;;;;;3.38;1.20;;;20.00;73.60;;;;;;5071568;28;20033;-65
2022/05/12 11:41:21;;;;;;;4.13;1.20;;;19.90;70.50;;;;;;5071188;28;20045;-65
2022/05/12 11:46:49;;;;;;;5.75;1.75;;;19.70;80.60;;;;;;5082334;28;20044;-66
2022/05/12 11:49:49;;;;;;;2.47;0.88;;;19.70;80.80;;;;;;5087834;28;20058;-71
2022/05/12 11:52:23;;;;;;;4.35;1.02;;;19.80;72.90;;;;;;5090775;28;20055;-72
2022/05/12 11:54:51;;;;;;;5.30;1.17;;;19.90;78.80;;;;;;5090385;28;20314;-71
2022/05/12 11:57:34;;;;;;;8.13;1.60;;;20.00;80.70;;;;;;5090554;28;20101;-71
2022/05/12 12:00:04;;;;;;;3.17;1.38;;;20.20;79.10;;;;;;5091360;28;20040;-71
2022/05/12 12:02:29;;;;;;;2.65;1.15;;;20.10;73.20;;;;;;5091839;28;20408;-71
2022/05/12 12:04:59;;;;;;;3.97;0.90;;;20.10;79.90;;;;;;5091751;28;20044;-71
2022/05/12 12:07:30;;;;;;;2.83;1.00;;;20.20;68.20;;;;;;5091579;28;20443;-71
2022/05/12 12:10:03;;;;;;;3.00;1.13;;;20.30;69.80;;;;;;5090204;28;20059;-72
2022/05/12 12:12:42;;;;;;;2.97;1.17;;;20.30;63.20;;;;;;5091637;28;20064;-73
2022/05/12 12:15:10;;;;;;;4.18;1.30;;;20.20;67.80;;;;;;5091583;28;20074;-71
2022/05/12 12:17:40;;;;;;;7.68;1.35;;;20.10;63.00;;;;;;5090842;28;20036;-72
2022/05/12 12:20:10;;;;;;;4.18;1.10;;;20.00;65.20;;;;;;5089115;28;20065;-71
2022/05/12 12:22:37;;;;;;;4.60;1.05;;;20.00;64.70;;;;;;5091022;28;20089;-70
2022/05/12 12:25:08;;;;;;;3.03;1.15;;;20.00;66.00;;;;;;5091333;28;20044;-71
2022/05/12 12:27:46;;;;;;;4.88;1.17;;;20.00;67.10;;;;;;5089788;28;20480;-71
2022/05/12 12:30:25;;;;;;;2.75;0.80;;;20.00;63.80;;;;;;5091096;28;20074;-71
2022/05/12 12:33:35;;;;;;;1.98;0.90;;;20.30;66.80;;;;;;5090857;28;20572;-71
2022/05/12 12:36:30;;;;;;;6.43;1.30;;;20.20;69.00;;;;;;5091315;28;20103;-71
2022/05/12 12:38:55;;;;;;;6.15;1.20;;;20.20;63.40;;;;;;5090271;28;20052;-71
2022/05/12 12:41:27;;;;;;;2.58;1.10;;;20.20;66.30;;;;;;5089140;28;20480;-66
2022/05/12 12:44:04;;;;;;;6.10;1.25;;;20.30;63.80;;;;;;5090559;28;20044;-65
2022/05/12 12:46:52;;;;;;;2.80;0.93;;;20.30;65.50;;;;;;5091260;28;20047;-66
2022/05/12 12:49:23;;;;;;;5.63;0.77;;;20.40;68.80;;;;;;5090667;28;20028;-66
2022/05/12 12:52:07;;;;;;;3.30;1.00;;;20.50;68.20;;;;;;5090442;28;20522;-66
2022/05/12 12:57:45;;;;;;;2.05;0.77;;;20.50;65.60;;;;;;5090647;28;20055;-71
2022/05/12 13:00:22;;;;;;;5.93;1.40;;;20.70;61.80;;;;;;5089860;28;20091;-71
2022/05/12 13:02:55;;;;;;;9.25;1.25;;;20.60;61.50;;;;;;5090751;28;20075;-71
2022/05/12 13:05:22;;;;;;;15.70;2.22;;;20.70;61.70;;;;;;5090803;28;20501;-72
2022/05/12 13:08:03;;;;;;;3.60;1.20;;;20.70;60.60;;;;;;5090503;28;20043;-72
2022/05/12 13:10:32;;;;;;;4.47;1.00;;;20.70;60.40;;;;;;5090571;28;20537;-72
2022/05/12 13:13:04;;;;;;;5.63;0.98;;;20.80;61.50;;;;;;5090604;28;20036;-71
2022/05/12 13:15:32;;;;;;;4.32;1.10;;;20.70;60.70;;;;;;5090531;28;20036;-71
2022/05/12 13:18:03;;;;;;;3.78;1.13;;;20.70;62.20;;;;;;5090062;28;20123;-71
2022/05/12 13:20:41;;;;;;;5.18;1.20;;;20.80;63.20;;;;;;5089743;28;20598;-71
2022/05/12 13:23:11;;;;;;;3.15;1.00;;;20.90;63.00;;;;;;5088206;28;20079;-72